createdAt,value
2022-10-25T00:01:01.908Z,100004.06
2022-10-25T00:03:29.408Z,100014.69
2022-10-25T00:05:56.913Z,100014.69
2022-10-25T00:08:24.364Z,100006.16
2022-10-25T00:10:51.804Z,100013.81
2022-10-25T00:13:19.256Z,100014.69
2022-10-25T00:15:46.698Z,100013.81
2022-10-25T00:18:15.482Z,100020.00
2022-10-25T00:20:42.911Z,100016.59
2022-10-25T00:23:10.401Z,100026.28
2022-10-25T00:25:37.843Z,100019.25
2022-10-25T00:28:05.497Z,100020.22
2022-10-25T00:30:33.006Z,99983.56
2022-10-25T00:33:00.481Z,100015.84
2022-10-25T00:35:29.689Z,100016.69
2022-10-25T00:37:57.130Z,100030.00
2022-10-25T00:40:24.557Z,100032.88
2022-10-25T00:42:51.989Z,100026.47
2022-10-25T00:45:21.731Z,99940.28
2022-10-25T00:47:52.187Z,99995.28
2022-10-25T00:50:28.830Z,99970.53
2022-10-25T00:52:58.880Z,99996.09
2022-10-25T00:55:26.501Z,100033.94
2022-10-25T00:57:55.546Z,100032.09
2022-10-25T01:00:23.040Z,100030.22
2022-10-25T01:02:50.531Z,100023.19
2022-10-25T01:05:18.101Z,100027.66
2022-10-25T01:07:45.824Z,100038.28
2022-10-25T01:10:14.778Z,100032.09
2022-10-25T01:12:42.209Z,100021.47
2022-10-25T01:15:10.514Z,100036.59
2022-10-25T01:17:42.749Z,100030.41
2022-10-25T01:20:32.330Z,99985.25
2022-10-25T01:23:01.719Z,100027.09
2022-10-25T01:25:45.604Z,100041.16
2022-10-25T01:28:13.855Z,100033.19
2022-10-25T01:31:00.619Z,100038.19
2022-10-25T01:33:28.912Z,100024.03
2022-10-25T01:36:00.070Z,100033.06
2022-10-25T01:38:34.239Z,100032.22
2022-10-25T01:41:07.928Z,99974.53
2022-10-25T01:43:39.283Z,100031.38
2022-10-25T01:46:11.858Z,100031.47
2022-10-25T01:48:40.943Z,100022.28
2022-10-25T01:51:10.814Z,99965.06
2022-10-25T01:53:46.305Z,100039.38
2022-10-25T01:56:16.659Z,100029.66
2022-10-25T01:58:46.802Z,100022.41
2022-10-25T02:01:18.887Z,100036.03
2022-10-25T02:03:49.067Z,100033.38
2022-10-25T02:06:20.393Z,100027.97
2022-10-25T02:08:49.695Z,100031.47
2022-10-25T02:11:20.412Z,99950.56
2022-10-25T02:13:54.249Z,99997.47
2022-10-25T02:16:23.526Z,100021.69
2022-10-25T02:18:53.110Z,100027.00
2022-10-25T02:21:20.562Z,99942.69
2022-10-25T02:23:48.014Z,100030.63
2022-10-25T02:26:15.452Z,100020.84
2022-10-25T02:28:42.909Z,100028.72
2022-10-25T02:31:11.454Z,100026.06
2022-10-25T02:33:40.217Z,100021.69
2022-10-25T02:36:09.528Z,100024.34
2022-10-25T02:38:36.985Z,100013.78
2022-10-25T02:41:04.644Z,100033.38
2022-10-25T02:43:32.173Z,100012.28
2022-10-25T02:45:59.693Z,100003.75
2022-10-25T02:48:27.188Z,100045.00
2022-10-25T02:50:55.979Z,100036.91
2022-10-25T02:53:23.418Z,99999.06
2022-10-25T02:55:59.574Z,100041.38
2022-10-25T02:58:27.046Z,100037.84
2022-10-25T03:00:54.633Z,100039.56
2022-10-25T03:03:22.190Z,100049.34
2022-10-25T03:05:49.654Z,100033.38
2022-10-25T03:08:18.546Z,100034.25
2022-10-25T03:10:46.047Z,100037.84
2022-10-25T03:13:13.518Z,100040.59
2022-10-25T03:15:40.984Z,100038.69
2022-10-25T03:18:08.432Z,100052.88
2022-10-25T03:20:35.911Z,100051.13
2022-10-25T03:23:03.352Z,100059.97
2022-10-25T03:25:32.163Z,100052.97
2022-10-25T03:28:00.271Z,100053.28
2022-10-25T03:30:27.796Z,100065.50
2022-10-25T03:32:55.241Z,100071.69
2022-10-25T03:35:22.696Z,100060.19
2022-10-25T03:37:50.228Z,100071.78
2022-10-25T03:40:17.848Z,100071.78
2022-10-25T03:42:46.648Z,100074.44
2022-10-25T03:45:14.135Z,100021.44
2022-10-25T03:47:41.580Z,100068.28
2022-10-25T03:50:09.277Z,100069.97
2022-10-25T03:52:36.709Z,100061.66
2022-10-25T03:55:04.291Z,100078.91
2022-10-25T03:57:31.728Z,100079.88
2022-10-25T04:00:00.581Z,100077.22
2022-10-25T04:02:28.154Z,100091.16
2022-10-25T04:04:55.624Z,100024.50
2022-10-25T04:07:23.066Z,100093.91
2022-10-25T04:09:50.505Z,100092.22
2022-10-25T04:12:17.944Z,100091.44
2022-10-25T04:14:45.365Z,100095.84
2022-10-25T04:17:14.128Z,100095.84
2022-10-25T04:19:41.570Z,100096.78
2022-10-25T04:22:09.014Z,100091.44
2022-10-25T04:24:36.508Z,100094.97
2022-10-25T04:27:04.112Z,100092.41
2022-10-25T04:29:31.558Z,100103.06
2022-10-25T04:31:59.155Z,100098.69
2022-10-25T04:34:27.944Z,100100.41
2022-10-25T04:36:55.400Z,100091.22
2022-10-25T04:39:22.916Z,100110.06
2022-10-25T04:41:50.353Z,100111.03
2022-10-25T04:44:18.043Z,100110.16
2022-10-25T04:46:48.581Z,100078.81
2022-10-25T04:49:17.163Z,100113.69
2022-10-25T04:51:46.004Z,100115.59
2022-10-25T04:54:13.718Z,100114.47
2022-10-25T04:56:41.504Z,100110.28
2022-10-25T04:59:09.676Z,100084.47
2022-10-25T05:01:37.249Z,100112.00
2022-10-25T05:04:05.023Z,100121.66
2022-10-25T05:06:32.537Z,100115.38
2022-10-25T05:09:01.306Z,100079.75
2022-10-25T05:11:28.794Z,100121.66
2022-10-25T05:13:56.262Z,100122.63
2022-10-25T05:16:24.337Z,100090.19
2022-10-25T05:18:54.236Z,100112.69
2022-10-25T05:21:21.767Z,100120.06
2022-10-25T05:23:49.274Z,100130.63
2022-10-25T05:26:19.391Z,100097.69
2022-10-25T05:28:46.983Z,100126.44
2022-10-25T05:31:15.681Z,100065.94
2022-10-25T05:33:44.879Z,100137.94
2022-10-25T05:36:12.494Z,100102.16
2022-10-25T05:38:40.013Z,100130.91
2022-10-25T05:41:07.558Z,100140.50
2022-10-25T05:43:36.352Z,100146.78
2022-10-25T05:46:05.066Z,100146.88
2022-10-25T05:48:32.658Z,100124.03
2022-10-25T05:51:28.657Z,100150.47
2022-10-25T05:53:57.840Z,100165.59
2022-10-25T05:56:26.315Z,100161.88
2022-10-25T05:58:56.183Z,100114.44
2022-10-25T06:01:24.128Z,100173.19
2022-10-25T06:03:52.098Z,100136.16
2022-10-25T06:06:19.684Z,100077.34
2022-10-25T06:08:47.258Z,100171.03
2022-10-25T06:11:15.850Z,100148.09
2022-10-25T06:13:43.340Z,100168.38
2022-10-25T06:16:12.940Z,100164.91
2022-10-25T06:18:40.391Z,100174.66
2022-10-25T06:21:09.367Z,100177.34
2022-10-25T06:23:37.011Z,100124.38
2022-10-25T06:26:06.004Z,100137.78
2022-10-25T06:28:33.511Z,100181.16
2022-10-25T06:31:02.369Z,100060.00
2022-10-25T06:33:31.491Z,100190.72
2022-10-25T06:35:59.105Z,100197.66
2022-10-25T06:38:26.966Z,100205.72
2022-10-25T06:40:59.214Z,100211.72
2022-10-25T06:43:26.718Z,100215.16
2022-10-25T06:45:54.212Z,100222.16
2022-10-25T06:48:21.677Z,100214.09
2022-10-25T06:50:52.201Z,100201.47
2022-10-25T06:53:19.761Z,100226.22
2022-10-25T06:55:49.413Z,100232.41
2022-10-25T06:58:16.848Z,100240.28
2022-10-25T07:00:46.093Z,100237.16
2022-10-25T07:03:16.334Z,100237.06
2022-10-25T07:05:43.773Z,100251.22
2022-10-25T07:08:12.527Z,100252.00
2022-10-25T07:10:40.051Z,100256.44
2022-10-25T07:13:07.482Z,100267.88
2022-10-25T07:15:37.416Z,100272.41
2022-10-25T07:18:07.378Z,100272.31
2022-10-25T07:20:34.823Z,100281.16
2022-10-25T07:23:05.371Z,100280.31
2022-10-25T07:25:36.755Z,100284.66
2022-10-25T07:28:04.288Z,100285.06
2022-10-25T07:30:32.252Z,100288.00
2022-10-25T07:32:59.669Z,100281.84
2022-10-25T07:35:27.090Z,100286.19
2022-10-25T07:37:54.531Z,100290.56
2022-10-25T07:40:21.998Z,100250.41
2022-10-25T07:42:51.459Z,100294.66
2022-10-25T07:45:22.292Z,100301.59
2022-10-25T07:47:52.153Z,100310.03
2022-10-25T07:50:20.469Z,100303.56
2022-10-25T07:52:47.901Z,100309.16
2022-10-25T07:55:15.504Z,100305.25
2022-10-25T07:57:43.094Z,100312.06
2022-10-25T08:00:13.010Z,100308.38
2022-10-25T08:02:40.889Z,100311.47
2022-10-25T08:05:09.347Z,100319.06
2022-10-25T08:07:36.826Z,100259.72
2022-10-25T08:10:04.574Z,100321.22
2022-10-25T08:12:32.027Z,100317.44
2022-10-25T08:14:59.475Z,100317.44
2022-10-25T08:17:28.224Z,100328.81
2022-10-25T08:19:56.297Z,100323.59
2022-10-25T08:22:23.718Z,100332.34
2022-10-25T08:24:51.181Z,100278.53
2022-10-25T08:27:18.629Z,100327.72
2022-10-25T08:29:46.112Z,100338.19
2022-10-25T08:32:13.565Z,100341.47
2022-10-25T08:34:42.387Z,100345.09
2022-10-25T08:37:11.387Z,100340.84
2022-10-25T08:39:38.876Z,100347.09
2022-10-25T08:42:06.475Z,100348.53
2022-10-25T08:44:39.126Z,100239.47
2022-10-25T08:47:08.431Z,100358.91
2022-10-25T08:49:40.964Z,100349.03
2022-10-25T08:52:16.709Z,100354.91
2022-10-25T08:54:45.148Z,100352.22
2022-10-25T08:57:16.491Z,100290.47
2022-10-25T08:59:45.025Z,100327.72
2022-10-25T09:02:17.699Z,100342.53
2022-10-25T09:04:45.215Z,100356.97
2022-10-25T09:07:20.679Z,100304.72
2022-10-25T09:09:50.498Z,100359.53
2022-10-25T09:12:20.854Z,100356.13
2022-10-25T09:14:50.156Z,100369.53
2022-10-25T09:17:19.274Z,100364.41
2022-10-25T09:19:55.229Z,100356.41
2022-10-25T09:22:26.569Z,100370.13
2022-10-25T09:24:57.775Z,100329.28
2022-10-25T09:27:27.724Z,100375.84
2022-10-25T09:29:56.235Z,100376.84
2022-10-25T09:32:25.002Z,100364.34
2022-10-25T09:34:52.457Z,100385.16
2022-10-25T09:37:23.445Z,100383.63
2022-10-25T09:39:53.527Z,100388.78
2022-10-25T09:42:21.777Z,100389.84
2022-10-25T09:44:50.857Z,100388.19
2022-10-25T09:47:29.635Z,100391.53
2022-10-25T09:49:59.003Z,100387.47
2022-10-25T09:52:29.991Z,100400.47
2022-10-25T09:55:06.734Z,100399.63
2022-10-25T09:57:34.191Z,100396.00
2022-10-25T10:00:01.625Z,100393.22
2022-10-25T10:02:29.179Z,100398.59
2022-10-25T10:04:56.795Z,100399.16
2022-10-25T10:07:25.857Z,100396.38
2022-10-25T10:09:54.115Z,100410.38
2022-10-25T10:12:24.614Z,100413.59
2022-10-25T10:14:56.070Z,100350.13
2022-10-25T10:17:23.504Z,100409.78
2022-10-25T10:20:08.592Z,100418.34
2022-10-25T10:22:37.378Z,100364.00
2022-10-25T10:25:05.773Z,100402.97
2022-10-25T10:29:57.650Z,100418.56
2022-10-25T10:32:26.715Z,100373.03
2022-10-25T10:34:55.135Z,100415.69
2022-10-25T10:37:23.776Z,100420.91
2022-10-25T10:39:52.994Z,100418.16
2022-10-25T10:42:21.321Z,100419.97
2022-10-25T10:45:04.887Z,100423.50
2022-10-25T10:47:34.284Z,100405.06
2022-10-25T10:50:01.973Z,100424.56
2022-10-25T10:52:31.118Z,100384.34
2022-10-25T10:54:58.748Z,100399.09
2022-10-25T10:57:29.617Z,100427.94
2022-10-25T10:59:57.308Z,100426.16
2022-10-25T11:02:29.701Z,100421.97
2022-10-25T11:04:57.890Z,100435.00
2022-10-25T11:07:28.577Z,100431.19
2022-10-25T11:10:14.051Z,100431.00
2022-10-25T11:12:41.535Z,100435.28
2022-10-25T11:15:11.640Z,100430.81
2022-10-25T11:17:40.758Z,100440.31
2022-10-25T11:20:13.759Z,100443.84
2022-10-25T11:25:20.727Z,100430.25
2022-10-25T11:27:54.716Z,100437.28
2022-10-25T11:30:22.681Z,100411.22
2022-10-25T11:33:18.372Z,100448.78
2022-10-25T11:35:50.189Z,100440.91
2022-10-25T11:38:21.074Z,100453.34
2022-10-25T11:40:55.783Z,100407.03
2022-10-25T11:43:32.135Z,100426.25
2022-10-25T11:46:00.257Z,100456.97
2022-10-25T11:48:36.359Z,100466.66
2022-10-25T11:51:07.460Z,100458.78
2022-10-25T11:53:50.842Z,100451.66
2022-10-25T11:56:21.902Z,100462.41
2022-10-25T11:58:52.917Z,100463.25
2022-10-25T12:01:27.682Z,100456.97
2022-10-25T12:04:09.814Z,100465.63
2022-10-25T12:06:39.454Z,100462.88
2022-10-25T12:09:08.588Z,100455.63
2022-10-25T12:11:38.946Z,100458.19
2022-10-25T12:14:08.331Z,100458.00
2022-10-25T12:16:36.495Z,100459.72
2022-10-25T12:19:08.954Z,100454.28
2022-10-25T12:21:41.373Z,100456.00
2022-10-25T12:24:12.412Z,100451.53
2022-10-25T12:26:40.632Z,100453.34
2022-10-25T12:29:12.969Z,100432.72
2022-10-25T12:31:43.334Z,100397.53
2022-10-25T12:34:13.735Z,100447.41
2022-10-25T12:36:41.726Z,100426.03
2022-10-25T12:39:13.697Z,100454.91
2022-10-25T12:41:41.115Z,100460.25
2022-10-25T12:44:25.256Z,100460.81
2022-10-25T12:47:06.192Z,100465.16
2022-10-25T12:49:54.973Z,100464.31
2022-10-25T12:52:29.499Z,100442.94
2022-10-25T12:55:04.239Z,100449.97
2022-10-25T12:57:34.382Z,100455.31
2022-10-25T13:00:04.690Z,100458.34
2022-10-25T13:02:47.994Z,100471.56
2022-10-25T13:05:44.966Z,100468.91
2022-10-25T13:08:12.425Z,100470.69
2022-10-25T13:10:42.863Z,100474.97
2022-10-25T13:13:17.329Z,100438.75
2022-10-25T13:15:46.915Z,100467.53
2022-10-25T13:18:26.884Z,100478.72
2022-10-25T13:20:55.712Z,100473.09
2022-10-25T13:24:00.386Z,100480.69
2022-10-25T13:26:34.876Z,100425.13
2022-10-25T13:29:03.877Z,100443.28
2022-10-25T13:31:47.993Z,100480.38
2022-10-25T13:34:31.326Z,100478.88
2022-10-25T13:37:00.379Z,100480.75
2022-10-25T13:39:31.789Z,100432.88
2022-10-25T13:42:02.454Z,100433.63
2022-10-25T13:44:29.893Z,100484.41
2022-10-25T13:46:57.346Z,100488.00
2022-10-25T13:49:31.475Z,100480.00
2022-10-25T13:52:01.039Z,100470.91
2022-10-25T13:54:32.256Z,100480.09
2022-10-25T13:56:59.688Z,100486.50
2022-10-25T13:59:35.781Z,100447.91
2022-10-25T14:02:09.432Z,100492.78
2022-10-25T14:04:39.919Z,100491.06
2022-10-25T14:07:47.967Z,100493.72
2022-10-25T14:10:20.852Z,100492.13
2022-10-25T14:12:49.694Z,100477.88
2022-10-25T14:15:19.760Z,100469.03
2022-10-25T14:17:47.212Z,100487.09
2022-10-25T14:20:22.304Z,100487.09
2022-10-25T14:22:53.230Z,100494.22
2022-10-25T14:25:21.606Z,100419.56
2022-10-25T14:27:49.109Z,100447.28
2022-10-25T14:30:24.140Z,100411.78
2022-10-25T14:32:52.377Z,100483.84
2022-10-25T14:35:19.879Z,100494.50
2022-10-25T14:37:47.316Z,100488.34
2022-10-25T14:40:21.325Z,100448.13
2022-10-25T14:42:49.098Z,100479.59
2022-10-25T14:45:20.360Z,100430.41
2022-10-25T14:47:47.852Z,100482.44
2022-10-25T14:50:15.601Z,100420.91
2022-10-25T14:52:44.664Z,100435.09
2022-10-25T14:55:19.963Z,100461.53
2022-10-25T14:57:47.712Z,100412.56
2022-10-25T15:00:19.079Z,100483.59
2022-10-25T15:02:46.939Z,100475.91
2022-10-25T15:05:18.535Z,100481.03
2022-10-25T15:07:46.872Z,100476.09
2022-10-25T15:10:35.633Z,100482.84
2022-10-25T15:13:03.684Z,100393.84
2022-10-25T15:15:34.895Z,100487.50
2022-10-25T15:18:02.416Z,100485.69
2022-10-25T15:20:30.601Z,100454.81
2022-10-25T15:23:05.360Z,100489.41
2022-10-25T15:25:34.933Z,100479.69
2022-10-25T15:28:10.091Z,100485.03
2022-10-25T15:30:38.379Z,100447.47
2022-10-25T15:33:06.651Z,100478.97
2022-10-25T15:35:34.122Z,100480.75
2022-10-25T15:38:01.545Z,100486.19
2022-10-25T15:40:29.028Z,100478.19
2022-10-25T15:42:57.786Z,100472.88
2022-10-25T15:45:25.235Z,100473.81
2022-10-25T15:47:54.993Z,100470.28
2022-10-25T15:50:22.956Z,100472.09
2022-10-25T15:52:50.702Z,100471.25
2022-10-25T15:55:19.479Z,100472.19
2022-10-25T15:57:47.006Z,100476.69
2022-10-25T16:00:16.826Z,100467.81
2022-10-25T16:02:44.339Z,100468.78
2022-10-25T16:05:16.762Z,100468.88
2022-10-25T16:07:44.246Z,100409.91
2022-10-25T16:10:11.710Z,100471.72
2022-10-25T16:12:39.161Z,100470.84
2022-10-25T16:15:07.868Z,100474.38
2022-10-25T16:17:36.645Z,100476.16
2022-10-25T16:20:04.413Z,100478.94
2022-10-25T16:22:32.086Z,100480.81
2022-10-25T16:24:59.522Z,100483.47
2022-10-25T16:27:26.968Z,100483.59
2022-10-25T16:29:54.422Z,100480.09
2022-10-25T16:32:21.861Z,100487.31
2022-10-25T16:34:50.639Z,100489.97
2022-10-25T16:37:18.622Z,100499.75
2022-10-25T16:39:46.140Z,100506.91
2022-10-25T16:42:29.643Z,100452.69
2022-10-25T16:44:57.181Z,100492.81
2022-10-25T16:47:24.693Z,100491.22
2022-10-25T16:49:53.484Z,100435.03
2022-10-25T16:52:21.002Z,100481.31
2022-10-25T16:54:48.586Z,100492.25
2022-10-25T16:57:16.261Z,100501.19
2022-10-25T16:59:43.753Z,100442.63
2022-10-25T17:02:16.216Z,100490.72
2022-10-25T17:04:43.776Z,100496.06
2022-10-25T17:07:12.571Z,100503.25
2022-10-25T17:09:40.061Z,100506.03
2022-10-25T17:12:07.701Z,100494.53
2022-10-25T17:14:35.455Z,100486.75
2022-10-25T17:17:03.405Z,100491.97
2022-10-25T17:19:30.938Z,100494.81
2022-10-25T17:21:58.432Z,100493.94
2022-10-25T17:24:27.221Z,100495.75
2022-10-25T17:26:54.721Z,100494.91
2022-10-25T17:29:22.187Z,100496.81
2022-10-25T17:31:49.645Z,100478.16
2022-10-25T17:34:17.563Z,100504.00
2022-10-25T17:36:45.069Z,100506.69
2022-10-25T17:39:12.554Z,100510.22
2022-10-25T17:41:41.342Z,100504.97
2022-10-25T17:44:10.573Z,100469.41
2022-10-25T17:46:38.068Z,100511.25
2022-10-25T17:49:05.766Z,100510.31
2022-10-25T17:51:33.531Z,100448.75
2022-10-25T17:54:01.004Z,100513.16
2022-10-25T17:56:28.819Z,100516.50
2022-10-25T17:58:58.212Z,100515.63
2022-10-25T18:01:26.677Z,100481.56
2022-10-25T18:03:54.965Z,100519.25
2022-10-25T18:08:56.342Z,100521.03
2022-10-25T18:11:24.549Z,100514.84
2022-10-25T18:13:53.392Z,100514.03
2022-10-25T18:16:25.672Z,100522.09
2022-10-25T18:18:53.148Z,100513.44
2022-10-25T18:21:20.597Z,100453.78
2022-10-25T18:23:48.034Z,100522.28
2022-10-25T18:26:16.596Z,100477.06
2022-10-25T18:28:44.098Z,100531.09
2022-10-25T18:31:12.839Z,100482.19
2022-10-25T18:33:42.335Z,100526.06
2022-10-25T18:36:11.472Z,100540.03
2022-10-25T18:38:38.937Z,100538.34
2022-10-25T18:41:07.101Z,100539.28
2022-10-25T18:43:34.565Z,100538.44
2022-10-25T18:46:02.139Z,100536.59
2022-10-25T18:48:29.623Z,100534.91
2022-10-25T18:51:03.016Z,100532.34
2022-10-25T18:53:30.728Z,100472.38
2022-10-25T18:55:58.354Z,100530.63
2022-10-25T18:58:25.798Z,100530.63
2022-10-25T19:00:53.325Z,100529.84
2022-10-25T19:03:20.829Z,100536.06
2022-10-25T19:05:48.277Z,100521.97
2022-10-25T19:08:17.138Z,100533.47
2022-10-25T19:10:44.608Z,100513.31
2022-10-25T19:13:18.778Z,100518.53
2022-10-25T19:15:46.650Z,100413.09
2022-10-25T19:18:14.798Z,100514.06
2022-10-25T19:20:45.535Z,100515.97
2022-10-25T19:23:14.036Z,100521.28
2022-10-25T19:25:42.850Z,100519.59
2022-10-25T19:28:10.329Z,100473.53
2022-10-25T19:30:37.832Z,100526.69
2022-10-25T19:33:05.297Z,100527.66
2022-10-25T19:35:32.782Z,100524.22
2022-10-25T19:38:00.234Z,100520.72
2022-10-25T19:40:27.740Z,100511.97
2022-10-25T19:42:56.545Z,100516.31
2022-10-25T19:45:24.488Z,100514.63
2022-10-25T19:47:55.870Z,100511.38
2022-10-25T19:50:23.863Z,100516.50
2022-10-25T19:52:51.389Z,100515.69
2022-10-25T19:55:18.932Z,100515.69
2022-10-25T19:57:46.848Z,100508.72
2022-10-25T20:00:16.958Z,100509.59
2022-10-25T20:02:44.409Z,100500.81
2022-10-25T20:07:44.296Z,100509.66
2022-10-25T20:10:12.939Z,100507.09
2022-10-25T20:12:40.392Z,100511.56
2022-10-25T20:15:08.637Z,100510.81
2022-10-25T20:17:37.642Z,100514.31
2022-10-25T20:20:06.077Z,100513.47
2022-10-25T20:22:37.770Z,100517.06
2022-10-25T20:25:06.874Z,100530.44
2022-10-25T20:27:34.382Z,100517.41
2022-10-25T20:30:01.841Z,100517.41
2022-10-25T20:32:29.292Z,100527.03
2022-10-25T20:34:58.142Z,100522.75
2022-10-25T20:37:25.589Z,100534.25
2022-10-25T20:39:53.041Z,100497.56
2022-10-25T20:42:20.494Z,100522.25
2022-10-25T20:44:47.986Z,100533.56
2022-10-25T20:47:15.476Z,100533.66
2022-10-25T20:49:42.925Z,100534.69
2022-10-25T20:52:11.688Z,100549.69
2022-10-25T20:54:39.302Z,100548.00
2022-10-25T20:57:08.481Z,100551.63
2022-10-25T20:59:35.985Z,100551.63
2022-10-25T21:02:03.526Z,100549.13
2022-10-25T21:04:49.461Z,100548.19
2022-10-25T21:07:19.871Z,100550.84
2022-10-25T21:09:49.490Z,100549.88
2022-10-25T21:12:17.151Z,100542.94
2022-10-25T21:14:44.677Z,100541.16
2022-10-25T21:17:12.268Z,100541.16
2022-10-25T21:19:39.750Z,100538.59
2022-10-25T21:22:07.187Z,100544.00
2022-10-25T21:27:09.856Z,100530.88
2022-10-25T21:29:37.339Z,100533.75
2022-10-25T21:32:04.989Z,100534.59
2022-10-25T21:34:32.563Z,100538.06
2022-10-25T21:37:00.032Z,100533.75
2022-10-25T21:39:27.574Z,100530.88
2022-10-25T21:41:56.349Z,100532.75
2022-10-25T21:44:23.836Z,100523.22
2022-10-25T21:46:51.256Z,100528.63
2022-10-25T21:49:18.777Z,100525.97
2022-10-25T21:51:46.235Z,100517.13
2022-10-25T21:54:13.901Z,100521.47
2022-10-25T21:56:41.371Z,100518.81
2022-10-25T21:59:10.162Z,100516.16
2022-10-25T22:01:37.833Z,100498.00
2022-10-25T22:04:05.671Z,100512.84
2022-10-25T22:06:33.161Z,100487.97
2022-10-25T22:09:00.644Z,100510.38
2022-10-25T22:11:28.924Z,100511.28
2022-10-25T22:13:57.058Z,100459.31
2022-10-25T22:16:26.078Z,100504.34
2022-10-25T22:18:54.735Z,100499.31
2022-10-25T22:21:22.401Z,100516.69
2022-10-25T22:23:49.966Z,100508.53
2022-10-25T22:26:18.398Z,100499.47
2022-10-25T22:28:45.867Z,100510.28
2022-10-25T22:31:14.726Z,100512.16
2022-10-25T22:33:43.712Z,100493.31
2022-10-25T22:36:13.169Z,100519.19
2022-10-25T22:38:40.684Z,100448.88
2022-10-25T22:41:08.979Z,100472.66
2022-10-25T22:43:36.567Z,100509.59
2022-10-25T22:46:04.354Z,100458.88
2022-10-25T22:48:32.209Z,100454.94
2022-10-25T22:51:00.989Z,100424.97
2022-10-25T22:53:28.484Z,100510.63
2022-10-25T22:55:56.922Z,100494.69
2022-10-25T22:58:24.603Z,100513.56
2022-10-25T23:00:52.261Z,100463.00
2022-10-25T23:03:19.794Z,100509.06
2022-10-25T23:05:47.249Z,100506.41
2022-10-25T23:08:16.218Z,100510.81
2022-10-25T23:10:43.713Z,100517.81
2022-10-25T23:13:11.145Z,100511.72
2022-10-25T23:15:38.603Z,100514.38
2022-10-25T23:18:06.127Z,100515.34
2022-10-25T23:20:33.589Z,100514.38
2022-10-25T23:23:01.030Z,100522.44
2022-10-25T23:25:29.821Z,100519.72
2022-10-25T23:27:57.230Z,100524.94
2022-10-25T23:30:26.774Z,100521.63
2022-10-25T23:32:54.189Z,100483.56
2022-10-25T23:35:21.633Z,100513.72
2022-10-25T23:37:49.340Z,100502.22
2022-10-25T23:40:17.207Z,100509.34
2022-10-25T23:42:45.966Z,100507.53
2022-10-25T23:45:13.473Z,100448.44
2022-10-25T23:47:41.018Z,100504.97
2022-10-25T23:50:09.316Z,100501.53
2022-10-25T23:52:36.761Z,100509.50
2022-10-25T23:55:04.541Z,100502.41
2022-10-25T23:57:31.999Z,100495.38
